TimeMST,TemperatureF,Dew PointF,Humidity,Sea Level PressureIn,VisibilityMPH,Wind Direction,Wind SpeedMPH,Gust SpeedMPH,PrecipitationIn,Events,Conditions,WindDirDegrees,DateUTC
12:53 AM,36.0,30.0,79,29.70,10.0,SE,17.3,-,N/A,,Clear,130,2012-11-09 07:53:00
1:53 AM,36.0,30.0,79,29.68,10.0,SE,20.7,26.5,N/A,,Clear,140,2012-11-09 08:53:00
2:53 AM,35.1,30.0,82,29.69,10.0,SE,9.2,24.2,N/A,,Clear,130,2012-11-09 09:53:00
3:53 AM,34.0,30.0,85,29.68,10.0,SSE,16.1,-,N/A,,Clear,160,2012-11-09 10:53:00
4:53 AM,33.1,30.0,89,29.70,10.0,SE,13.8,-,N/A,,Clear,140,2012-11-09 11:53:00
5:53 AM,33.1,30.0,89,29.68,10.0,SE,6.9,-,N/A,,Clear,130,2012-11-09 12:53:00
6:53 AM,33.1,30.9,92,29.69,10.0,SE,17.3,-,N/A,,Clear,130,2012-11-09 13:53:00
7:53 AM,33.1,30.9,92,29.70,10.0,SE,13.8,-,N/A,,Clear,140,2012-11-09 14:53:00
8:53 AM,35.1,32.0,89,29.69,10.0,SE,18.4,-,N/A,,Clear,140,2012-11-09 15:53:00
9:53 AM,35.1,30.9,85,29.70,10.0,SE,17.3,23.0,N/A,,Clear,130,2012-11-09 16:53:00
10:53 AM,43.0,33.1,68,29.65,10.0,SE,18.4,-,N/A,,Clear,140,2012-11-09 17:53:00
11:53 AM,46.9,33.1,59,29.60,10.0,SE,16.1,20.7,N/A,,Mostly Cloudy,140,2012-11-09 18:53:00
12:53 PM,46.0,32.0,58,29.56,10.0,SE,17.3,-,N/A,,Overcast,130,2012-11-09 19:53:00
1:53 PM,45.0,30.9,58,29.55,10.0,ESE,19.6,-,N/A,,Mostly Cloudy,120,2012-11-09 20:53:00
2:53 PM,46.9,32.0,56,29.53,10.0,SE,13.8,19.6,N/A,,Mostly Cloudy,130,2012-11-09 21:53:00
3:53 PM,45.0,33.1,63,29.54,10.0,ESE,20.7,-,N/A,,Clear,120,2012-11-09 22:53:00
4:53 PM,43.0,33.1,68,29.55,10.0,ESE,19.6,26.5,N/A,,Clear,120,2012-11-09 23:53:00
5:53 PM,44.1,33.1,65,29.56,10.0,SE,16.1,-,N/A,,Overcast,140,2012-11-10 00:53:00
6:53 PM,43.0,34.0,71,29.60,10.0,East,9.2,-,0.00,,Overcast,90,2012-11-10 01:53:00
7:53 PM,42.1,33.1,70,29.57,10.0,ESE,11.5,-,0.00,,Overcast,110,2012-11-10 02:53:00
8:53 PM,36.0,32.0,86,29.60,10.0,NE,8.1,-,N/A,,Scattered Clouds,40,2012-11-10 03:53:00
9:53 PM,34.0,30.9,89,29.62,10.0,North,6.9,-,N/A,,Mostly Cloudy,350,2012-11-10 04:53:00
10:53 PM,33.1,30.9,92,29.59,10.0,North,8.1,-,N/A,,Mostly Cloudy,350,2012-11-10 05:53:00
11:06 PM,33.8,30.2,87,29.58,10.0,North,8.1,-,N/A,,Overcast,10,2012-11-10 06:06:00
11:19 PM,32.0,30.2,93,29.59,10.0,North,8.1,-,N/A,,Overcast,10,2012-11-10 06:19:00
11:53 PM,32.0,30.9,96,29.56,9.0,NNE,8.1,-,N/A,,Overcast,30,2012-11-10 06:53:00